Bluegrove, Texas
Current Conditions -  °F | °C
As of 3:35 PM on Wednesday 17 Dec 2014 (Local Time) from KCWC Reporting Station
Light Rain Light Rain  
Wind Chill: 35°   Ceiling: 3100
Heat Index: 40°   Visibility: 4mi
Dew Point: 39°   Wind: 7mph
Humidity: 98%   Direction: 90°E
Pressure: 30.1"   Gusts: NA
Location:  33.67°N, 98.23°W
Report Text: KCWC 172135Z AUTO 09006KT 4SM -RA SCT020 OVC031 04/04 A3010 RMK AO2 LTG DSNT E T00430040
Loading
Personal Weather Stations






























Interactive Weather Map New forecast layout! Learn more

10-Day Weather Forecast

Advertisements
Track Severe Weather on mobile